createdAt,value
2022-09-12T00:01:17.118Z,91.09
2022-09-12T00:03:50.642Z,91.11
2022-09-12T00:06:25.870Z,91.29
2022-09-12T00:09:00.542Z,91.37
2022-09-12T00:11:33.661Z,91.45
2022-09-12T00:14:10.101Z,92.08
2022-09-12T00:16:43.320Z,92.27
2022-09-12T00:19:16.265Z,92.34
2022-09-12T00:21:48.682Z,92.61
2022-09-12T00:24:47.582Z,93.14
2022-09-12T00:27:57.742Z,92.75
2022-09-12T00:30:33.333Z,93.56
2022-09-12T00:33:05.961Z,93.80
2022-09-12T00:35:38.580Z,93.83
2022-09-12T00:38:10.902Z,94.15
2022-09-12T00:40:44.141Z,93.72
2022-09-12T00:43:17.781Z,93.90
2022-09-12T00:45:53.788Z,94.14
2022-09-12T00:48:35.320Z,94.55
2022-09-12T00:51:08.303Z,94.79
2022-09-12T00:53:42.082Z,95.05
2022-09-12T00:56:19.422Z,95.08
2022-09-12T00:58:57.585Z,95.60
2022-09-12T01:01:33.443Z,95.63
2022-09-12T01:04:06.761Z,95.98
2022-09-12T01:06:43.642Z,96.21
2022-09-12T01:09:20.462Z,96.50
2022-09-12T01:11:55.244Z,96.65
2022-09-12T01:14:27.442Z,97.18
2022-09-12T01:17:02.721Z,97.25
2022-09-12T01:20:02.381Z,97.27
2022-09-12T01:23:10.449Z,97.44
2022-09-12T01:25:53.982Z,97.72
2022-09-12T01:29:01.381Z,97.97
2022-09-12T01:31:42.543Z,98.12
2022-09-12T01:34:26.761Z,98.23
2022-09-12T01:37:07.162Z,98.66
2022-09-12T01:39:51.496Z,98.87
2022-09-12T01:42:30.546Z,99.00
2022-09-12T01:45:09.362Z,99.08
2022-09-12T01:47:51.343Z,99.11
2022-09-12T01:50:28.583Z,99.36
2022-09-12T01:53:05.584Z,99.47
2022-09-12T01:55:41.742Z,99.07
2022-09-12T01:58:19.262Z,99.32
2022-09-12T02:00:58.334Z,99.34
2022-09-12T02:03:38.325Z,99.51
2022-09-12T02:06:22.523Z,99.71
2022-09-12T02:08:58.841Z,99.97
2022-09-12T02:11:35.302Z,99.66
2022-09-12T02:14:13.222Z,99.89
2022-09-12T02:16:52.361Z,100.00
2022-09-12T02:19:32.901Z,100.00
2022-09-12T02:22:15.549Z,100.00
2022-09-12T02:24:53.022Z,100.00
2022-09-12T02:27:29.781Z,100.00
2022-09-12T02:30:02.401Z,100.00
2022-09-12T02:32:39.863Z,100.00
2022-09-12T02:35:24.022Z,100.00
2022-09-12T02:38:04.381Z,100.00
2022-09-12T02:40:38.061Z,100.00
2022-09-12T02:43:11.363Z,100.00
2022-09-12T02:45:43.995Z,100.00
2022-09-12T02:48:21.702Z,100.00
2022-09-12T02:50:57.603Z,100.00
2022-09-12T02:53:31.005Z,100.00
2022-09-12T02:56:03.664Z,100.00
2022-09-12T02:58:36.821Z,100.00
2022-09-12T03:01:16.389Z,100.00
2022-09-12T03:04:09.322Z,100.00
2022-09-12T03:06:53.985Z,100.00
2022-09-12T03:09:38.003Z,100.00
2022-09-12T03:12:22.609Z,100.00
2022-09-12T03:15:11.185Z,100.00
2022-09-12T03:18:01.721Z,100.00
2022-09-12T03:20:53.643Z,100.00
2022-09-12T03:23:37.821Z,100.00
2022-09-12T03:26:16.264Z,100.00
2022-09-12T08:07:44.862Z,80.71
2022-09-12T08:10:17.523Z,80.88
2022-09-12T08:12:50.723Z,80.78
2022-09-12T08:15:23.521Z,80.36
2022-09-12T08:17:59.762Z,76.41
2022-09-12T08:20:33.321Z,75.67
2022-09-12T08:23:08.121Z,75.42
2022-09-12T08:25:40.883Z,74.99
2022-09-12T08:28:13.169Z,71.51
2022-09-12T08:30:45.749Z,68.75
2022-09-12T08:33:18.520Z,64.27
2022-09-12T08:35:51.326Z,62.96
2022-09-12T08:38:26.242Z,62.73
2022-09-12T08:41:07.363Z,59.53
2022-09-12T08:43:57.066Z,54.82
2022-09-12T08:46:38.487Z,56.00
2022-09-12T08:49:35.942Z,52.11
2022-09-12T08:52:14.422Z,51.34
2022-09-12T08:54:50.349Z,52.32
2022-09-12T08:57:23.272Z,52.92
2022-09-12T08:59:56.543Z,51.44
2022-09-12T09:02:54.316Z,46.73
2022-09-12T09:05:35.551Z,47.81
2022-09-12T09:08:22.341Z,45.26
2022-09-12T09:11:07.660Z,46.39
2022-09-12T09:14:07.024Z,47.91
2022-09-12T09:16:42.744Z,44.61
2022-09-12T09:19:20.823Z,45.62
2022-09-12T09:21:57.862Z,44.07
2022-09-12T09:24:37.023Z,42.38
2022-09-12T09:27:39.395Z,44.32
2022-09-12T09:30:18.900Z,41.56
2022-09-12T09:32:55.526Z,42.40
2022-09-12T09:35:42.147Z,43.65
2022-09-12T09:38:26.342Z,41.45
2022-09-12T09:41:14.464Z,40.41
2022-09-12T09:43:49.421Z,41.47
2022-09-12T09:46:22.125Z,40.75
2022-09-12T09:48:55.465Z,39.28
2022-09-12T09:51:34.240Z,38.49
2022-09-12T09:54:14.140Z,38.66
2022-09-12T09:56:47.543Z,40.15
2022-09-12T09:59:28.901Z,38.19
2022-09-12T10:02:04.130Z,38.47
2022-09-12T10:04:41.368Z,39.72
2022-09-12T10:07:23.262Z,43.31
2022-09-12T10:10:09.703Z,38.68
2022-09-12T10:12:42.393Z,37.48
2022-09-12T10:15:26.561Z,38.95
2022-09-12T10:18:00.475Z,42.62
2022-09-12T10:20:38.861Z,39.41
2022-09-12T10:23:32.742Z,36.36
2022-09-12T10:26:08.740Z,38.48
2022-09-12T10:28:43.947Z,36.97
2022-09-12T10:31:29.236Z,37.10
2022-09-12T10:34:03.819Z,36.44
2022-09-12T10:36:41.820Z,35.97
2022-09-12T10:39:22.780Z,37.20
2022-09-12T10:41:54.917Z,38.44
2022-09-12T10:44:31.102Z,38.75
2022-09-12T10:47:24.660Z,40.58
2022-09-12T10:49:57.623Z,41.47
2022-09-12T10:52:29.781Z,40.97
2022-09-12T10:55:02.869Z,41.52
2022-09-12T10:57:57.620Z,42.52
2022-09-12T11:00:31.461Z,44.20
2022-09-12T11:03:18.660Z,42.52
2022-09-12T11:06:01.030Z,41.86
2022-09-12T11:08:57.783Z,45.71
2022-09-12T11:11:55.301Z,45.99
2022-09-12T11:14:38.622Z,45.53
2022-09-12T11:17:26.340Z,44.45
2022-09-12T11:20:33.750Z,44.49
2022-09-12T11:23:31.462Z,44.33
2022-09-12T11:26:13.062Z,46.65
2022-09-12T11:28:56.261Z,45.78
2022-09-12T11:31:56.020Z,46.47
2022-09-12T11:34:40.781Z,48.44
2022-09-12T11:37:33.143Z,46.04
2022-09-12T11:40:16.756Z,46.20
2022-09-12T11:42:52.980Z,45.64
2022-09-12T11:45:30.221Z,45.07
2022-09-12T11:48:08.940Z,44.54
2022-09-12T11:50:41.583Z,45.06
2022-09-12T11:53:23.261Z,45.06
2022-09-12T12:01:13.237Z,43.69
2022-09-12T12:03:47.177Z,42.36
2022-09-12T12:06:22.780Z,41.10
2022-09-12T12:08:57.622Z,42.49
2022-09-12T12:11:34.583Z,40.99
2022-09-12T12:14:09.711Z,41.58
2022-09-12T12:16:43.594Z,41.08
2022-09-12T12:19:34.943Z,42.33
2022-09-12T12:22:18.582Z,40.78
2022-09-12T12:25:07.802Z,41.25
2022-09-12T12:27:56.970Z,39.98
2022-09-12T12:31:05.781Z,39.50
2022-09-12T12:33:58.765Z,42.14
2022-09-12T12:36:38.737Z,42.67
2022-09-12T12:39:50.618Z,43.97
2022-09-12T12:43:09.063Z,43.83
2022-09-12T12:46:18.425Z,45.29
2022-09-12T12:49:11.711Z,43.21
2022-09-12T12:51:57.806Z,42.85
2022-09-12T12:54:57.058Z,43.86
2022-09-12T12:57:36.811Z,42.46
2022-09-12T13:00:11.962Z,42.93
2022-09-12T13:02:56.210Z,45.03
2022-09-12T13:05:30.925Z,45.75
2022-09-12T13:08:10.445Z,45.39
2022-09-12T13:10:52.084Z,42.37
2022-09-12T13:13:29.283Z,43.84
2022-09-12T13:16:01.998Z,43.06
2022-09-12T13:18:47.571Z,43.42
2022-09-12T13:21:24.166Z,42.51
2022-09-12T13:24:05.405Z,43.98
2022-09-12T13:26:39.460Z,45.01
2022-09-12T13:29:17.843Z,44.92
2022-09-12T13:31:52.563Z,44.16
2022-09-12T13:34:30.803Z,44.43
2022-09-12T13:37:24.242Z,46.13
2022-09-12T13:40:05.824Z,43.16
2022-09-12T13:42:43.762Z,44.80
2022-09-12T13:45:23.082Z,43.71
2022-09-12T13:48:00.441Z,45.98
2022-09-12T13:50:42.763Z,45.57
2022-09-12T13:53:19.284Z,45.80
2022-09-12T13:55:55.602Z,45.76
2022-09-12T13:58:29.881Z,45.02
2022-09-12T14:01:17.813Z,47.24
2022-09-12T14:06:53.322Z,45.29
2022-09-12T14:09:36.122Z,46.32
2022-09-12T14:12:18.644Z,46.66
2022-09-12T14:14:54.205Z,46.53
2022-09-12T14:17:31.962Z,46.26
2022-09-12T14:20:25.121Z,43.75
2022-09-12T14:29:19.322Z,46.43
2022-09-12T14:32:05.124Z,46.03
2022-09-12T14:34:37.163Z,46.55
2022-09-12T14:37:10.602Z,48.89
2022-09-12T14:39:48.047Z,47.04
2022-09-12T14:42:23.523Z,43.68
2022-09-12T14:44:59.925Z,45.83
2022-09-12T14:47:40.081Z,46.51
2022-09-12T14:50:20.801Z,45.19
2022-09-12T14:53:07.241Z,44.80
2022-09-12T14:55:48.242Z,47.22
2022-09-12T14:58:28.723Z,47.43
2022-09-12T15:01:03.135Z,45.28
2022-09-12T15:03:37.882Z,47.19
2022-09-12T15:06:23.765Z,48.75
2022-09-12T15:08:58.003Z,47.34
2022-09-12T15:11:33.932Z,48.82
2022-09-12T15:14:15.803Z,44.22
2022-09-12T15:16:48.010Z,46.37
2022-09-12T15:19:20.484Z,45.79
2022-09-12T15:21:52.374Z,47.13
2022-09-12T15:24:24.773Z,46.55
2022-09-12T15:26:59.455Z,47.36
2022-09-12T15:29:31.694Z,48.40
2022-09-12T15:32:04.732Z,48.05
2022-09-12T15:34:40.094Z,48.74
2022-09-12T15:37:16.076Z,49.70
2022-09-12T15:39:48.508Z,48.71
2022-09-12T15:42:32.417Z,49.09
2022-09-12T15:45:05.179Z,49.40
2022-09-12T15:47:36.758Z,48.37
2022-09-12T15:50:11.338Z,50.07
2022-09-12T15:52:42.996Z,51.87
2022-09-12T15:55:20.198Z,51.69
2022-09-12T15:57:54.719Z,49.64
2022-09-12T16:00:27.418Z,49.86
2022-09-12T16:02:59.137Z,52.15
2022-09-12T16:05:31.297Z,51.85
2022-09-12T16:08:03.220Z,50.32
2022-09-12T16:10:35.256Z,48.44
2022-09-12T16:13:20.185Z,48.97
2022-09-12T16:16:47.037Z,50.12
2022-09-12T16:19:35.818Z,51.43
2022-09-12T16:22:08.338Z,51.09
2022-09-12T16:27:55.577Z,51.06
2022-09-12T16:30:38.878Z,51.45
2022-09-12T16:33:10.917Z,53.08
2022-09-12T16:35:42.718Z,52.31
2022-09-12T16:38:14.598Z,52.71
2022-09-12T16:40:46.257Z,52.42
2022-09-12T16:43:18.956Z,52.05
2022-09-12T16:45:53.158Z,54.11
2022-09-12T16:48:25.117Z,52.44
2022-09-12T16:51:01.809Z,51.34
2022-09-12T16:53:34.617Z,52.36
2022-09-12T16:56:07.722Z,53.60
2022-09-12T16:58:42.232Z,53.57
2022-09-12T17:01:18.971Z,54.66
2022-09-12T17:03:51.290Z,54.03
2022-09-12T17:06:23.400Z,54.21
2022-09-12T17:08:56.618Z,54.93
2022-09-12T17:11:30.796Z,55.10
2022-09-12T17:14:05.827Z,56.96
2022-09-12T17:16:51.870Z,56.79
2022-09-12T17:19:26.803Z,58.03
2022-09-12T17:21:59.261Z,56.88
2022-09-12T17:24:31.338Z,56.36
2022-09-12T17:27:02.965Z,56.57
2022-09-12T17:29:36.076Z,56.63
2022-09-12T17:32:14.411Z,56.12
2022-09-12T17:34:48.838Z,56.25
2022-09-12T17:37:20.676Z,56.16
2022-09-12T17:39:52.671Z,57.35
2022-09-12T17:42:24.678Z,57.10
2022-09-12T17:44:58.599Z,57.67
2022-09-12T17:47:33.297Z,57.75
2022-09-12T17:50:30.291Z,57.72
2022-09-12T17:52:57.926Z,57.90
2022-09-12T17:55:32.339Z,58.97
2022-09-12T17:58:04.018Z,59.01
2022-09-12T18:00:48.116Z,59.54
2022-09-12T18:03:25.795Z,60.28
2022-09-12T18:06:03.778Z,60.56
2022-09-12T18:08:35.537Z,61.09
2022-09-12T18:11:11.078Z,60.87
2022-09-12T18:13:42.821Z,61.72
2022-09-12T18:16:16.609Z,61.66
2022-09-12T18:18:51.453Z,61.51
2022-09-12T18:21:24.024Z,61.29
2022-09-12T18:23:55.564Z,61.70
2022-09-12T18:26:28.657Z,62.13
2022-09-12T18:29:01.145Z,62.29
2022-09-12T18:31:34.038Z,62.79
2022-09-12T18:34:12.924Z,63.39
2022-09-12T18:36:46.256Z,62.91
2022-09-12T18:39:18.762Z,63.83
2022-09-12T18:41:50.905Z,64.42
2022-09-12T18:44:23.043Z,65.33
2022-09-12T18:46:55.504Z,64.80
2022-09-12T18:49:30.264Z,66.05
2022-09-12T18:52:02.425Z,65.61
2022-09-12T18:54:34.285Z,65.74
2022-09-12T18:57:07.026Z,65.98
2022-09-12T18:59:38.924Z,66.26
2022-09-12T19:02:15.203Z,66.85
2022-09-12T19:04:50.008Z,66.72
2022-09-12T19:07:22.184Z,67.11
2022-09-12T19:09:54.212Z,66.99
2022-09-12T19:12:27.804Z,66.72
2022-09-12T19:14:59.742Z,68.45
2022-09-12T19:17:32.169Z,68.51
2022-09-12T19:20:07.471Z,68.45
2022-09-12T19:22:39.649Z,69.40
2022-09-12T19:25:12.471Z,69.15
2022-09-12T19:27:44.751Z,69.27
2022-09-12T19:30:17.857Z,69.82
2022-09-12T19:32:50.219Z,70.67
2022-09-12T19:35:24.852Z,71.31
2022-09-12T19:37:57.258Z,72.43
2022-09-12T19:40:29.037Z,69.69
2022-09-12T19:43:01.140Z,70.95
2022-09-12T19:45:33.027Z,70.96
2022-09-12T19:48:05.938Z,71.23
2022-09-12T19:50:40.536Z,71.38
2022-09-12T19:53:13.089Z,71.05
2022-09-12T19:55:45.112Z,70.97
2022-09-12T19:58:17.387Z,72.48
2022-09-12T20:00:49.320Z,71.51
2022-09-12T20:03:21.509Z,71.42
2022-09-12T20:05:56.219Z,69.55
2022-09-12T20:08:29.577Z,69.49
2022-09-12T20:11:01.500Z,68.75
2022-09-12T20:13:33.767Z,69.59
2022-09-12T20:16:20.413Z,68.35
2022-09-12T20:18:57.747Z,68.11
2022-09-12T20:21:36.216Z,67.68
2022-09-12T20:24:10.590Z,68.46
2022-09-12T20:26:43.014Z,67.99
2022-09-12T20:29:15.558Z,67.82
2022-09-12T20:31:47.853Z,67.85
2022-09-12T20:34:23.444Z,67.25
2022-09-12T20:36:57.989Z,67.91
2022-09-12T20:39:53.777Z,67.23
2022-09-12T20:42:25.742Z,67.98
2022-09-12T20:44:58.079Z,67.78
2022-09-12T20:47:30.042Z,68.09
2022-09-12T20:50:02.280Z,68.61
2022-09-12T20:52:37.114Z,68.61
2022-09-12T20:55:10.493Z,68.90
2022-09-12T20:57:42.586Z,69.83
2022-09-12T21:00:16.161Z,70.12
2022-09-12T21:02:49.588Z,71.45
2022-09-12T21:05:21.575Z,70.79
2022-09-12T21:07:55.838Z,71.35
2022-09-12T21:10:28.016Z,70.80
2022-09-12T21:12:59.582Z,71.48
2022-09-12T21:15:31.713Z,71.01
2022-09-12T21:18:03.387Z,71.09
2022-09-12T21:20:35.408Z,70.97
2022-09-12T21:23:09.772Z,71.29
2022-09-12T21:25:49.342Z,71.70
2022-09-12T21:28:24.707Z,71.49
2022-09-12T21:30:56.667Z,71.97
2022-09-12T21:33:28.474Z,72.00
2022-09-12T21:36:05.744Z,71.27
2022-09-12T21:38:40.160Z,72.74
2022-09-12T21:41:13.991Z,72.92
2022-09-12T21:43:46.612Z,73.09
2022-09-12T21:46:18.854Z,72.32
2022-09-12T21:48:50.550Z,72.31
2022-09-12T21:51:22.812Z,72.29
2022-09-12T21:53:57.018Z,73.27
2022-09-12T21:56:35.807Z,73.14
2022-09-12T21:59:07.368Z,72.69
2022-09-12T22:01:39.080Z,73.19
2022-09-12T22:04:12.060Z,73.92
2022-09-12T22:06:43.726Z,73.73
2022-09-12T22:09:18.356Z,73.77
2022-09-12T22:11:54.676Z,73.47
2022-09-12T22:14:26.176Z,73.92
2022-09-12T22:16:58.396Z,74.24
2022-09-12T22:19:29.897Z,74.37
2022-09-12T22:22:13.947Z,73.75
2022-09-12T22:25:16.177Z,74.76
2022-09-12T22:27:47.817Z,74.19
2022-09-12T22:30:19.257Z,73.41
2022-09-12T22:32:51.687Z,73.73
2022-09-12T22:35:23.397Z,73.79
2022-09-12T22:37:55.137Z,74.20
2022-09-12T22:40:29.248Z,74.41
2022-09-12T22:43:01.007Z,75.16
2022-09-12T22:45:32.631Z,74.99
2022-09-12T22:48:08.585Z,75.24
2022-09-12T22:50:40.784Z,74.29
2022-09-12T22:53:13.123Z,75.09
2022-09-12T22:55:49.160Z,75.05
2022-09-12T22:58:20.949Z,75.25
2022-09-12T23:00:53.348Z,74.83
2022-09-12T23:03:33.214Z,75.14
2022-09-12T23:06:05.451Z,74.94
2022-09-12T23:08:40.043Z,76.27
2022-09-12T23:11:17.384Z,75.62
2022-09-12T23:13:51.060Z,75.41
2022-09-12T23:16:25.132Z,74.80
2022-09-12T23:18:57.236Z,75.87
2022-09-12T23:21:30.221Z,75.90
2022-09-12T23:24:02.525Z,76.57
2022-09-12T23:26:37.335Z,76.13
2022-09-12T23:29:09.405Z,75.46
2022-09-12T23:31:44.048Z,75.21
2022-09-12T23:34:16.214Z,75.66
2022-09-12T23:36:48.054Z,75.11
2022-09-12T23:39:20.185Z,75.75
2022-09-12T23:41:54.655Z,75.81
2022-09-12T23:44:26.735Z,76.27
2022-09-12T23:46:58.386Z,75.96
2022-09-12T23:49:30.393Z,76.41
2022-09-12T23:52:02.074Z,75.80
2022-09-12T23:54:37.215Z,76.27
2022-09-12T23:57:11.555Z,76.68
2022-09-12T23:59:43.624Z,76.36
